Time;durP1;ratioP1;P1;durP2;ratioP2;P2;SDS_P1;SDS_P2;PMS_P1;PMS_P2;Temp;Humidity;BMP_temperature;BMP_pressure;BME280_temperature;BME280_humidity;BME280_pressure;Samples;Min_cycle;Max_cycle;Signal;HPM_P1;HPM_P2
2023/07/14 00:01:56;;;;;;;2.92;1.73;;;19.50;48.90;;;21.31;39.32;97912.81;5030705;28;20057;-55
2023/07/14 00:04:34;;;;;;;3.25;2.13;;;19.50;49.30;;;21.29;39.22;97917.63;5029560;28;20052;-55
2023/07/14 00:07:03;;;;;;;3.17;1.90;;;19.40;49.70;;;21.29;39.14;97911.41;5024394;28;20045;-55
2023/07/14 00:09:32;;;;;;;4.82;2.78;;;19.40;49.30;;;21.29;39.16;97919.53;5029516;28;20057;-54
2023/07/14 00:12:01;;;;;;;4.45;2.45;;;19.40;49.40;;;21.30;39.48;97916.56;5029607;28;20520;-54
2023/07/14 00:14:28;;;;;;;4.38;2.55;;;19.50;49.30;;;21.31;39.19;97912.81;5031302;28;20056;-54
2023/07/14 00:16:57;;;;;;;2.25;1.73;;;19.50;49.20;;;21.31;39.00;97918.25;5023288;28;20053;-52
2023/07/14 00:19:26;;;;;;;3.85;1.85;;;19.50;49.20;;;21.31;39.12;97912.00;5031767;28;20042;-55
2023/07/14 00:21:54;;;;;;;5.63;2.70;;;19.50;49.10;;;21.31;39.07;97918.25;5029329;28;20048;-56
2023/07/14 00:24:23;;;;;;;5.53;1.83;;;19.50;49.10;;;21.34;39.51;97911.53;5031117;28;20072;-56
2023/07/14 00:26:55;;;;;;;3.95;2.28;;;19.50;49.10;;;21.35;39.36;97905.09;5031041;28;20501;-52
2023/07/14 00:29:34;;;;;;;3.97;2.22;;;19.60;48.90;;;21.38;38.95;97904.63;5031125;28;20041;-54
2023/07/14 00:32:17;;;;;;;5.03;2.20;;;19.60;48.80;;;21.39;38.95;97904.41;5006592;28;20049;-55
2023/07/14 00:34:45;;;;;;;4.30;2.10;;;19.60;48.90;;;21.39;39.28;97904.41;5029276;28;20406;-55
2023/07/14 00:37:13;;;;;;;4.65;2.00;;;19.60;48.90;;;;;;5030753;28;20463;-54
2023/07/14 00:39:41;;;;;;;3.30;1.60;;;19.60;49.10;;;21.36;39.34;97891.28;5030556;28;20042;-54
2023/07/14 00:42:14;;;;;;;5.30;1.98;;;19.50;49.20;;;21.35;39.40;97897.78;5029315;28;20046;-54
2023/07/14 00:44:43;;;;;;;;;;;19.60;49.20;;;21.35;39.29;97888.84;5029860;28;20046;-54
2023/07/14 00:47:26;;;;;;;5.28;1.70;;;19.50;49.60;;;21.35;38.89;97883.44;5029083;28;19959;-55
2023/07/14 00:49:55;;;;;;;2.92;1.80;;;19.50;49.60;;;21.32;39.18;97892.81;5013614;28;20523;-55
2023/07/14 00:52:30;;;;;;;3.92;2.00;;;19.50;49.40;;;21.30;39.10;97889.50;5013355;28;20054;-53
2023/07/14 00:54:58;;;;;;;3.95;2.20;;;19.50;49.60;;;21.28;39.41;97888.88;5031194;28;20049;-54
2023/07/14 00:57:28;;;;;;;4.35;1.83;;;19.40;49.10;;;21.26;39.24;97880.16;5032876;28;20046;-56
2023/07/14 01:00:15;;;;;;;4.88;2.20;;;19.40;49.10;;;21.23;38.92;97877.94;5032615;28;20049;-54
2023/07/14 01:02:42;;;;;;;3.65;2.03;;;19.40;48.90;;;21.20;39.27;97883.78;5032636;28;20068;-52
2023/07/14 01:05:11;;;;;;;3.47;2.10;;;19.30;49.10;;;21.15;39.38;97878.19;5034650;28;20041;-55
2023/07/14 01:07:43;;;;;;;3.90;2.15;;;19.30;49.10;;;21.12;38.97;97879.47;5032768;28;20041;-54
2023/07/14 01:10:17;;;;;;;2.13;1.60;;;19.20;49.20;;;21.09;38.98;97879.09;5033260;28;20054;-54
2023/07/14 01:12:55;;;;;;;3.22;1.92;;;19.10;49.50;;;21.03;39.52;97875.41;5033069;28;20548;-56
2023/07/14 01:15:24;;;;;;;2.17;1.92;;;19.10;50.10;;;20.99;39.20;97879.59;5034175;28;20515;-56
2023/07/14 01:17:53;;;;;;;2.20;1.88;;;19.10;50.00;;;20.95;39.60;97881.91;5033265;28;20057;-55
2023/07/14 01:20:21;;;;;;;2.05;1.70;;;19.00;50.00;;;20.92;39.33;97881.53;5032911;28;20041;-52
2023/07/14 01:23:22;;;;;;;3.53;2.00;;;19.00;50.10;;;20.88;39.47;97869.50;5032549;28;20068;-55
2023/07/14 01:26:28;;;;;;;2.55;1.58;;;19.00;50.50;;;20.82;39.56;97873.91;5032952;28;20133;-53
2023/07/14 01:28:56;;;;;;;2.60;1.85;;;18.90;51.20;;;20.79;39.47;97875.19;5017311;28;20052;-55
2023/07/14 01:31:25;;;;;;;6.60;1.90;;;18.80;50.60;;;20.74;39.96;97869.59;5034763;28;20049;-55
2023/07/14 01:33:54;;;;;;;7.32;2.10;;;18.80;50.80;;;20.70;39.69;97862.97;5032407;28;20049;-53
2023/07/14 01:36:23;;;;;;;2.70;1.70;;;18.70;50.70;;;20.68;40.14;97865.09;5016813;28;20064;-56
2023/07/14 01:38:52;;;;;;;2.42;1.85;;;18.70;50.90;;;20.65;40.03;97866.38;5031475;28;20057;-54
2023/07/14 01:41:21;;;;;;;3.03;1.60;;;18.70;51.10;;;20.63;40.03;97863.06;5033521;28;20046;-53
2023/07/14 01:43:53;;;;;;;3.88;1.88;;;18.70;50.50;;;20.62;39.76;97855.97;5016759;28;20053;-55
2023/07/14 01:46:22;;;;;;;3.00;1.80;;;18.80;50.30;;;20.60;39.82;97851.84;5032661;28;20049;-53
2023/07/14 01:48:59;;;;;;;3.03;1.60;;;18.70;50.20;;;20.59;39.95;97855.56;5015779;28;20425;-55
2023/07/14 01:51:35;;;;;;;3.58;2.40;;;18.80;50.50;;;20.56;40.12;97850.59;5031918;28;20053;-54
2023/07/14 01:54:33;;;;;;;2.95;1.83;;;18.70;50.90;;;20.50;40.29;97854.19;5031838;28;20054;-56
2023/07/14 01:57:09;;;;;;;2.25;2.05;;;18.60;51.60;;;20.49;40.38;97847.09;5032306;28;20041;-56
2023/07/14 01:59:42;;;;;;;4.88;2.13;;;18.50;51.60;;;20.42;40.66;97849.88;5032674;28;20065;-40
2023/07/14 02:02:14;;;;;;;;;;;18.40;52.60;;;20.39;40.40;97836.78;5025050;28;20056;-40
2023/07/14 02:04:42;;;;;;;2.50;1.67;;;18.40;52.50;;;20.40;40.28;97843.88;5002510;28;19929;-41
2023/07/14 02:07:13;;;;;;;2.35;1.80;;;18.30;52.00;;;20.38;40.56;97840.56;5014277;28;20053;-40
2023/07/14 02:09:43;;;;;;;3.22;1.80;;;18.40;52.10;;;20.37;40.62;97834.28;5031511;28;20057;-40
2023/07/14 02:12:28;;;;;;;3.97;1.98;;;18.40;51.90;;;20.36;40.60;97840.75;5032042;28;20060;-40
2023/07/14 02:15:05;;;;;;;3.35;1.90;;;18.50;52.30;;;20.37;40.80;97836.19;5015682;28;20049;-40
2023/07/14 02:17:35;;;;;;;4.65;1.70;;;18.50;52.20;;;20.34;40.58;97832.03;5033011;28;20052;-40
2023/07/14 02:20:14;;;;;;;4.38;2.00;;;18.40;52.00;;;20.34;40.72;97831.22;5031364;28;20052;-40
2023/07/14 02:22:41;;;;;;;3.58;2.10;;;18.40;52.10;;;20.33;40.59;97835.78;5031838;28;20072;-40
2023/07/14 02:25:16;;;;;;;2.90;1.95;;;18.40;51.70;;;20.32;40.55;97838.72;5015330;28;20504;-40
2023/07/14 02:27:44;;;;;;;4.80;1.90;;;18.40;52.00;;;20.28;40.88;97835.63;5031530;28;20045;-40
2023/07/14 02:30:22;;;;;;;3.85;1.80;;;18.40;51.80;;;20.25;40.98;97830.66;5031704;28;20057;-40
2023/07/14 02:32:56;;;;;;;3.25;2.13;;;18.30;52.20;;;20.25;40.99;97831.47;5031205;28;20093;-40
2023/07/14 02:35:44;;;;;;;4.22;1.70;;;18.40;52.00;;;20.26;40.91;97830.44;5031652;28;20512;-40
2023/07/14 02:38:17;;;;;;;3.30;1.80;;;18.40;51.70;;;20.25;40.87;97830.66;5029898;28;20220;-40
2023/07/14 02:41:08;;;;;;;2.60;1.75;;;18.40;51.80;;;20.21;40.74;97824.84;5031448;28;20042;-40
2023/07/14 02:43:35;;;;;;;4.10;2.55;;;18.30;52.00;;;20.21;40.63;97829.44;5000505;28;20053;-40
2023/07/14 02:46:18;;;;;;;2.47;2.28;;;18.40;51.50;;;20.17;40.83;97826.34;5031238;28;20497;-40
2023/07/14 02:48:50;;;;;;;2.38;1.40;;;18.30;52.00;;;20.17;40.75;97834.44;5032913;28;20505;-40
2023/07/14 02:51:18;;;;;;;5.32;2.17;;;18.40;51.80;;;20.16;41.24;97829.25;5030645;28;20052;-40
2023/07/14 02:53:46;;;;;;;5.55;2.60;;;18.40;52.20;;;20.14;41.33;97828.63;5030854;28;20053;-40
2023/07/14 02:56:13;;;;;;;3.53;2.17;;;18.30;52.70;;;20.11;41.67;97829.91;5031373;28;20535;-40
2023/07/14 02:58:41;;;;;;;3.00;2.17;;;18.30;53.00;;;20.06;41.71;97835.13;5031113;28;20056;-40
2023/07/14 03:01:09;;;;;;;3.53;2.17;;;18.20;53.50;;;20.00;42.14;97834.13;5015015;28;20050;-40
2023/07/14 03:03:38;;;;;;;2.85;2.25;;;18.10;54.30;;;19.95;42.13;97835.81;5032245;28;20056;-40
2023/07/14 03:06:06;;;;;;;3.20;2.60;;;18.00;54.60;;;19.88;42.65;97821.53;5031580;28;20057;-40
2023/07/14 03:08:34;;;;;;;5.03;2.40;;;17.90;54.90;;;19.83;42.84;97830.28;5030591;28;20064;-40
2023/07/14 03:11:02;;;;;;;3.20;2.13;;;17.90;55.10;;;19.79;42.91;97827.19;5030589;28;20397;-40
2023/07/14 03:13:30;;;;;;;6.90;2.30;;;17.90;55.40;;;19.79;43.07;97810.13;5032029;28;20041;-40
2023/07/14 03:15:58;;;;;;;3.78;2.05;;;17.90;55.70;;;19.75;43.06;97812.44;5032026;28;20060;-40
2023/07/14 03:18:25;;;;;;;5.22;2.65;;;17.90;55.70;;;19.73;42.99;97809.13;5031136;28;20056;-40
2023/07/14 03:21:01;;;;;;;3.13;2.25;;;17.80;55.80;;;19.72;43.46;97802.09;5030023;28;20049;-40
2023/07/14 03:23:31;;;;;;;5.43;2.70;;;17.80;56.60;;;19.67;43.33;97809.97;5030969;28;20033;-40
2023/07/14 03:26:08;;;;;;;3.55;2.10;;;17.80;56.50;;;19.64;43.42;97813.13;5030317;28;20045;-53
2023/07/14 03:28:37;;;;;;;5.50;2.30;;;17.70;57.10;;;19.60;43.61;97812.72;5031698;28;20041;-55
2023/07/14 03:31:05;;;;;;;6.15;2.97;;;17.60;56.80;;;19.55;43.70;97815.22;5029870;28;20428;-54
2023/07/14 03:33:35;;;;;;;4.35;2.50;;;17.60;56.90;;;19.51;43.78;97816.69;5031597;28;20037;-54
2023/07/14 03:36:14;;;;;;;5.55;2.58;;;17.50;57.40;;;19.45;43.89;97815.69;5029996;28;20220;-54
2023/07/14 03:38:44;;;;;;;6.85;2.75;;;17.50;58.10;;;19.39;44.13;97808.44;5031694;28;20045;-52
2023/07/14 03:41:14;;;;;;;3.25;2.42;;;17.40;58.10;;;19.36;44.41;97811.56;5031079;28;20045;-53
2023/07/14 03:43:43;;;;;;;4.75;2.80;;;17.30;58.40;;;19.34;44.47;97816.34;5031592;28;20034;-56
2023/07/14 03:46:11;;;;;;;8.00;2.40;;;17.40;58.30;;;19.30;44.55;97804.31;5030911;28;20042;-52
2023/07/14 03:48:39;;;;;;;3.65;2.78;;;17.30;58.60;;;19.30;44.63;97801.59;5030581;28;20041;-52
2023/07/14 03:51:07;;;;;;;6.35;2.40;;;17.30;58.80;;;19.30;44.96;97806.19;5030738;28;20072;-55
2023/07/14 03:53:35;;;;;;;3.05;2.38;;;17.40;58.70;;;19.28;44.81;97809.91;5013632;28;20064;-54
2023/07/14 03:56:03;;;;;;;4.40;2.60;;;17.30;58.80;;;19.30;44.98;97806.19;5031101;28;20096;-40
2023/07/14 03:58:31;;;;;;;8.18;2.85;;;17.40;59.00;;;19.31;45.11;97810.53;5031257;28;20052;-40
2023/07/14 04:01:00;;;;;;;5.32;2.65;;;17.40;58.90;;;19.32;45.06;97813.03;5030856;28;20064;-40
2023/07/14 04:03:27;;;;;;;3.58;2.35;;;17.40;59.20;;;19.33;45.24;97814.69;5030214;28;20037;-40
2023/07/14 04:05:55;;;;;;;5.72;2.80;;;17.40;59.10;;;19.36;45.14;97813.44;5030306;28;20402;-39
2023/07/14 04:08:35;;;;;;;4.85;2.45;;;17.50;59.20;;;19.38;45.21;97812.16;5029955;28;20042;-39
2023/07/14 04:11:04;;;;;;;4.50;2.85;;;17.50;59.10;;;19.42;45.26;97804.47;5030758;28;20052;-39
2023/07/14 04:13:33;;;;;;;3.92;2.40;;;17.50;59.10;;;19.45;45.10;97815.69;5030473;28;20121;-53
2023/07/14 04:16:00;;;;;;;6.20;3.25;;;17.50;59.20;;;19.45;45.24;97804.06;5029673;28;20049;-55
2023/07/14 04:18:28;;;;;;;6.13;3.00;;;17.50;59.40;;;19.47;45.61;97812.78;5031270;28;20068;-56
2023/07/14 04:21:04;;;;;;;7.50;3.13;;;17.50;59.30;;;19.50;45.56;97808.81;5029474;28;20050;-54
2023/07/14 04:23:32;;;;;;;4.25;2.70;;;17.60;59.90;;;19.51;45.64;97813.16;5030782;28;20128;-54
2023/07/14 04:26:01;;;;;;;3.53;2.50;;;17.60;59.60;;;19.55;45.80;97812.53;5031013;28;20409;-53
2023/07/14 04:28:29;;;;;;;4.05;2.90;;;17.70;59.50;;;19.58;45.54;97806.69;5031145;28;20033;-55
2023/07/14 04:31:00;;;;;;;3.75;2.95;;;17.80;59.30;;;19.62;45.83;97809.81;5032780;28;20046;-55
2023/07/14 04:33:30;;;;;;;4.13;3.03;;;17.80;59.00;;;19.68;45.66;97808.94;5033946;28;20408;-56
2023/07/14 04:35:58;;;;;;;6.97;2.25;;;18.00;58.70;;;19.72;45.48;97796.69;5034487;28;20037;-55
2023/07/14 04:38:26;;;;;;;4.70;2.40;;;18.00;58.50;;;19.77;45.45;97793.31;5034887;28;20034;-54
2023/07/14 04:40:54;;;;;;;3.47;2.22;;;18.00;58.10;;;19.81;45.26;97799.94;5033194;28;20044;-55
2023/07/14 04:43:22;;;;;;;4.40;2.30;;;18.10;58.60;;;19.85;45.29;97802.03;5035043;28;20037;-56
2023/07/14 04:45:53;;;;;;;7.05;2.83;;;18.20;57.60;;;19.91;45.23;97803.03;5034043;28;20408;-55
2023/07/14 04:48:23;;;;;;;4.57;2.50;;;18.30;57.70;;;19.97;45.14;97804.03;5034569;28;20057;-54
2023/07/14 04:50:51;;;;;;;4.10;2.25;;;18.40;57.60;;;20.02;45.17;97796.91;5034392;28;20041;-55
2023/07/14 04:53:19;;;;;;;2.90;2.13;;;18.40;57.90;;;20.08;45.52;97797.09;5026800;28;20046;-54
2023/07/14 04:55:48;;;;;;;5.88;2.70;;;18.50;58.00;;;20.12;45.57;97791.00;5034529;28;20212;-53
2023/07/14 04:58:17;;;;;;;3.42;2.25;;;18.60;58.10;;;20.18;45.47;97794.72;5033252;28;20061;-56
2023/07/14 05:00:47;;;;;;;4.53;2.38;;;18.60;58.10;;;20.24;45.86;97793.88;5033513;28;20048;-54
2023/07/14 05:03:15;;;;;;;6.15;2.67;;;18.70;58.60;;;20.29;46.23;97791.31;5034042;28;20053;-53
2023/07/14 05:05:43;;;;;;;6.32;3.33;;;18.80;58.70;;;20.35;46.02;97787.72;5034397;28;20037;-51
2023/07/14 05:08:11;;;;;;;3.50;2.50;;;18.80;59.10;;;20.40;45.88;97784.38;5034106;28;20049;-54
2023/07/14 05:10:38;;;;;;;3.78;2.83;;;18.80;59.10;;;20.42;45.96;97784.97;5033920;28;20555;-53
2023/07/14 05:13:06;;;;;;;3.45;2.72;;;18.80;58.90;;;20.46;45.95;97791.59;5034076;28;20057;-53
2023/07/14 05:15:34;;;;;;;4.78;2.67;;;18.80;59.40;;;20.51;45.54;97788.22;5033003;28;20493;-55
2023/07/14 05:18:02;;;;;;;3.80;2.67;;;18.90;57.90;;;20.56;45.04;97788.41;5033579;28;20071;-54
2023/07/14 05:20:29;;;;;;;4.85;2.65;;;19.00;57.30;;;20.62;45.36;97782.13;5033774;28;20056;-54
2023/07/14 05:22:57;;;;;;;5.43;3.20;;;19.10;57.40;;;20.65;44.59;97785.22;5032451;28;20042;-39
2023/07/14 05:25:25;;;;;;;5.35;2.10;;;19.10;55.80;;;20.70;43.87;97781.00;5034022;28;20520;-39
2023/07/14 05:27:53;;;;;;;5.47;2.83;;;19.10;55.60;;;20.76;43.97;97782.81;5033871;28;20040;-39
2023/07/14 05:30:21;;;;;;;5.20;2.78;;;19.30;55.70;;;20.83;44.59;97783.59;5033754;28;20045;-39
2023/07/14 05:32:49;;;;;;;3.35;2.90;;;19.30;56.20;;;20.90;44.99;97778.94;5033784;28;20071;-40
2023/07/14 05:35:17;;;;;;;6.47;3.28;;;19.40;57.30;;;20.95;45.55;97787.19;5033543;28;20056;-39
2023/07/14 05:37:46;;;;;;;5.90;2.88;;;19.40;58.10;;;21.00;45.40;97787.38;5033780;28;20046;-39
2023/07/14 05:40:16;;;;;;;4.93;2.85;;;19.50;57.80;;;21.05;44.28;97789.38;5029438;28;20052;-39
2023/07/14 05:42:44;;;;;;;4.28;2.50;;;19.50;56.00;;;21.07;43.80;97789.16;5033391;28;20433;-39
2023/07/14 05:45:13;;;;;;;4.60;2.97;;;19.50;55.10;;;21.09;44.01;97782.47;5033527;28;20045;-39
2023/07/14 05:47:46;;;;;;;5.65;3.40;;;19.50;55.10;;;21.12;43.88;97786.63;5033248;28;20042;-40
2023/07/14 05:50:15;;;;;;;3.95;3.20;;;19.50;55.00;;;21.13;44.02;97785.56;5033071;28;20107;-39
2023/07/14 05:52:44;;;;;;;3.05;2.55;;;19.50;55.80;;;21.10;44.22;97784.13;5033260;28;20497;-39
2023/07/14 05:55:13;;;;;;;6.15;3.13;;;19.50;55.40;;;21.11;43.76;97783.09;5033430;28;20049;-39
2023/07/14 05:57:41;;;;;;;3.95;2.30;;;19.50;55.60;;;21.13;44.27;97788.25;5032539;28;20485;-40
2023/07/14 06:00:16;;;;;;;5.72;2.70;;;19.50;56.00;;;21.18;44.14;97780.31;5032118;28;20046;-40
2023/07/14 06:02:50;;;;;;;4.05;2.75;;;19.60;55.80;;;21.21;44.18;97780.69;5016188;28;20038;-39
2023/07/14 06:05:19;;;;;;;5.53;2.22;;;19.70;55.70;;;21.23;43.87;97775.88;5033211;28;20045;-40
2023/07/14 06:07:47;;;;;;;5.20;2.75;;;19.70;55.40;;;21.21;44.16;97779.88;5032951;28;20041;-39
2023/07/14 06:10:14;;;;;;;6.22;2.97;;;19.70;56.30;;;21.13;44.29;97780.13;5032834;28;20056;-39
2023/07/14 06:12:42;;;;;;;5.57;2.90;;;19.70;55.40;;;21.08;44.30;97774.59;5031756;28;20049;-39
2023/07/14 06:15:11;;;;;;;9.20;3.05;;;19.70;55.50;;;21.03;44.86;97768.00;5033428;28;20049;-38
2023/07/14 06:17:39;;;;;;;8.13;2.75;;;19.60;56.10;;;21.03;44.63;97775.25;5033206;28;20042;-39
2023/07/14 06:20:07;;;;;;;5.72;3.28;;;19.70;56.30;;;21.03;44.91;97768.00;5032434;28;20049;-39
2023/07/14 06:22:35;;;;;;;5.72;3.38;;;19.50;56.90;;;21.08;45.35;97778.13;5032466;28;20044;-39
2023/07/14 06:25:03;;;;;;;5.97;3.15;;;19.60;56.90;;;21.12;45.26;97768.50;5033546;28;20067;-39
2023/07/14 06:27:33;;;;;;;7.15;3.13;;;19.70;57.00;;;21.15;45.29;97765.34;5032841;28;20524;-39
2023/07/14 06:30:01;;;;;;;4.57;2.85;;;19.70;57.20;;;21.24;45.46;97765.84;5031327;28;20072;-39
2023/07/14 06:32:29;;;;;;;5.88;3.35;;;19.80;57.00;;;21.26;45.06;97762.94;5032162;28;20037;-39
2023/07/14 06:34:56;;;;;;;4.55;2.60;;;19.90;56.40;;;21.23;44.66;97758.81;5032687;28;20048;-39
2023/07/14 06:37:25;;;;;;;5.35;2.58;;;20.00;55.60;;;21.22;44.41;97757.97;5032577;28;20053;-39
2023/07/14 06:39:53;;;;;;;6.80;3.03;;;20.00;55.10;;;21.26;45.01;97754.81;5032442;28;20055;-39
2023/07/14 06:42:21;;;;;;;7.28;3.00;;;20.10;55.50;;;21.31;44.30;97746.84;5031850;28;20045;-39
2023/07/14 06:44:49;;;;;;;4.95;2.60;;;20.10;54.90;;;21.40;44.34;97745.44;5032100;28;20325;-39
2023/07/14 06:47:16;;;;;;;5.20;3.13;;;20.10;54.70;;;21.47;44.24;97748.13;5031834;28;20046;-39
2023/07/14 06:49:44;;;;;;;4.13;2.90;;;20.20;54.70;;;21.53;43.36;97742.59;5032293;28;20033;-39
2023/07/14 06:52:13;;;;;;;3.65;2.65;;;20.20;53.30;;;21.60;43.46;97729.81;5032164;28;20049;-40
2023/07/14 06:54:41;;;;;;;6.32;2.60;;;20.30;53.30;;;21.69;43.32;97735.72;5031833;28;20056;-38
2023/07/14 06:57:09;;;;;;;5.00;2.25;;;20.50;53.20;;;21.76;43.23;97730.22;5032155;28;20049;-39
2023/07/14 06:59:36;;;;;;;5.05;2.53;;;20.60;52.50;;;21.85;42.53;97733.41;5030995;28;20049;-40
2023/07/14 07:02:05;;;;;;;5.53;2.83;;;20.70;52.00;;;21.87;42.25;97737.56;5031869;28;20048;-39
2023/07/14 07:04:34;;;;;;;3.10;2.03;;;20.70;51.40;;;21.94;42.00;97740.16;5024274;28;20442;-39
2023/07/14 07:07:04;;;;;;;4.55;2.28;;;20.80;50.60;;;21.96;41.83;97733.44;5031707;28;20042;-39
2023/07/14 07:09:31;;;;;;;3.97;2.60;;;20.80;50.60;;;22.01;41.66;97738.16;5031589;28;20052;-39
2023/07/14 07:11:59;;;;;;;4.47;2.25;;;20.80;50.20;;;22.07;41.58;97729.09;5031883;28;20041;-39
2023/07/14 07:14:27;;;;;;;5.28;2.50;;;20.90;50.40;;;22.12;41.62;97721.09;5030331;28;20045;-39
2023/07/14 07:16:56;;;;;;;3.78;2.53;;;20.90;50.20;;;22.18;41.37;97727.47;5032061;28;20045;-39
2023/07/14 07:19:24;;;;;;;7.28;2.40;;;21.00;49.90;;;22.26;40.85;97729.06;5031558;28;20041;-39
2023/07/14 07:21:53;;;;;;;2.90;2.10;;;21.10;49.80;;;22.32;40.89;97718.09;5031540;28;20481;-39
2023/07/14 07:24:21;;;;;;;5.32;2.47;;;21.10;49.20;;;22.39;41.08;97728.81;5031357;28;20049;-39
2023/07/14 07:26:49;;;;;;;4.95;2.20;;;21.20;49.20;;;22.46;40.82;97724.09;5031870;28;20492;-39
2023/07/14 07:29:16;;;;;;;4.00;1.90;;;21.40;48.90;;;22.53;40.67;97721.28;5031229;28;20033;-39
2023/07/14 07:31:44;;;;;;;7.28;2.85;;;21.40;49.30;;;22.59;40.48;97721.16;5030749;28;20037;-39
2023/07/14 07:34:11;;;;;;;3.97;2.28;;;21.50;48.40;;;22.65;40.45;97719.38;5031429;28;20056;-39
2023/07/14 07:36:39;;;;;;;5.22;2.67;;;21.60;48.40;;;22.69;40.38;97717.03;5030301;28;20048;-39
2023/07/14 07:39:07;;;;;;;3.72;2.28;;;21.60;48.40;;;22.75;40.28;97718.78;5031436;28;20052;-39
2023/07/14 07:41:34;;;;;;;3.10;2.50;;;21.70;48.50;;;22.78;40.21;97715.59;5028905;28;20053;-39
2023/07/14 07:44:02;;;;;;;3.55;2.40;;;21.70;48.40;;;22.82;40.33;97708.63;5030191;28;20041;-39
2023/07/14 07:46:32;;;;;;;4.28;2.55;;;21.70;48.40;;;22.88;40.27;97718.53;5031389;28;20515;-39
2023/07/14 07:49:00;;;;;;;3.00;2.28;;;21.80;48.60;;;22.94;40.05;97716.75;5031438;28;20037;-39
2023/07/14 07:51:28;;;;;;;8.98;2.38;;;21.80;48.40;;;23.00;39.66;97699.50;5031018;28;20104;-39
2023/07/14 07:53:56;;;;;;;3.85;2.63;;;21.90;47.90;;;23.05;39.21;97706.94;5031407;28;20037;-40
2023/07/14 07:56:24;;;;;;;5.45;2.40;;;21.90;46.70;;;23.08;38.99;97703.75;5031146;28;20125;-39
2023/07/14 07:58:51;;;;;;;5.03;2.22;;;22.00;46.60;;;23.10;39.03;97699.72;5031852;28;20045;-39
2023/07/14 08:01:23;;;;;;;4.85;2.50;;;22.00;46.40;;;23.12;38.90;97700.31;5029902;28;20049;-39
2023/07/14 08:03:52;;;;;;;5.80;2.38;;;22.10;46.30;;;23.17;38.93;97697.72;5026924;28;20041;-39
2023/07/14 08:06:21;;;;;;;3.47;2.70;;;22.10;46.60;;;23.23;39.10;97692.41;5031356;28;20052;-39
2023/07/14 08:08:49;;;;;;;4.30;2.17;;;22.10;46.60;;;23.28;38.74;97693.28;5035206;28;20048;-39
2023/07/14 08:11:16;;;;;;;3.13;2.08;;;22.20;46.10;;;23.34;38.50;97678.75;5034902;28;20041;-40
2023/07/14 08:13:44;;;;;;;3.55;2.40;;;22.20;45.80;;;23.42;37.99;97677.56;5035273;28;20423;-40
2023/07/14 08:16:11;;;;;;;3.85;2.28;;;22.40;45.00;;;23.47;37.88;97672.19;5035440;28;20060;-39
2023/07/14 08:18:40;;;;;;;3.28;2.50;;;22.40;44.70;;;23.52;37.05;97680.44;5027376;28;20052;-39
2023/07/14 08:21:07;;;;;;;2.92;2.33;;;22.50;43.80;;;23.57;37.30;97685.13;5034873;28;20049;-40
2023/07/14 08:23:36;;;;;;;2.80;2.47;;;22.60;43.90;;;23.66;37.39;97680.97;5033921;28;20505;-39
2023/07/14 08:26:05;;;;;;;4.60;2.38;;;22.70;44.00;;;23.75;37.18;97676.78;5034973;28;20440;-40
2023/07/14 08:28:33;;;;;;;4.72;3.03;;;22.80;43.70;;;23.84;36.96;97682.66;5035015;28;20050;-39
2023/07/14 08:31:07;;;;;;;4.10;2.40;;;22.80;43.40;;;23.95;36.79;97675.50;5034812;28;20045;-39
2023/07/14 08:33:36;;;;;;;4.70;2.28;;;23.00;42.90;;;24.07;36.43;97668.09;5034844;28;20402;-40
2023/07/14 08:36:04;;;;;;;4.82;2.42;;;23.10;42.70;;;24.20;36.27;97655.25;5034796;28;20049;-40
2023/07/14 08:38:34;;;;;;;5.28;3.25;;;23.30;42.30;;;24.33;35.25;97658.44;5034349;28;20048;-40
2023/07/14 08:41:28;;;;;;;3.38;2.40;;;23.40;40.80;;;24.50;35.41;97654.84;5030644;28;20072;-40
2023/07/14 08:44:42;;;;;;;2.40;2.20;;;23.60;39.70;;;24.69;34.75;97661.69;5027548;28;20045;-40
2023/07/14 08:47:31;;;;;;;2.67;2.15;;;23.80;38.10;;;24.84;34.27;97657.53;5030294;28;20046;-40
2023/07/14 08:50:12;;;;;;;2.65;1.92;;;23.90;37.60;;;24.96;33.99;97659.03;5027860;28;20056;-40
2023/07/14 08:52:40;;;;;;;4.75;2.20;;;24.10;38.30;;;25.06;33.84;97652.88;5033531;28;20045;-40
2023/07/14 08:55:22;;;;;;;2.75;1.92;;;24.20;38.80;;;25.15;33.35;97658.72;5034535;28;20048;-40
2023/07/14 08:58:18;;;;;;;4.37;2.03;;;24.40;36.50;;;25.24;33.60;97656.38;5026339;28;20057;-40
2023/07/14 09:01:08;;;;;;;5.85;2.40;;;24.40;37.40;;;25.36;33.40;97657.06;5027252;28;20544;-40
2023/07/14 09:03:46;;;;;;;2.53;1.80;;;24.60;36.40;;;25.46;32.73;97659.06;5028895;28;20046;-40
2023/07/14 09:06:17;;;;;;;2.28;1.95;;;24.60;36.30;;;25.53;32.35;97649.63;5033372;28;20041;-40
2023/07/14 09:08:45;;;;;;;3.53;2.20;;;24.70;36.50;;;25.60;32.55;97660.28;5026308;28;20052;-40
2023/07/14 09:11:49;;;;;;;3.47;2.10;;;24.80;36.90;;;25.68;32.68;97653.56;5032357;28;20050;-40
2023/07/14 09:14:34;;;;;;;2.85;2.00;;;24.90;35.10;;;25.76;31.88;97653.06;5029383;28;20512;-40
2023/07/14 09:17:27;;;;;;;3.95;2.20;;;24.90;36.20;;;25.83;31.64;97661.06;5027871;28;20388;-40
2023/07/14 09:20:26;;;;;;;2.72;1.98;;;25.00;36.20;;;25.88;31.72;97651.00;5012836;28;20049;-39
2023/07/14 09:23:27;;;;;;;2.97;2.25;;;25.10;34.60;;;25.97;32.09;97653.28;5027127;28;20489;-40
2023/07/14 09:26:13;;;;;;;6.28;2.47;;;25.10;35.00;;;26.04;31.97;97649.25;5027117;28;20497;-40
2023/07/14 09:28:48;;;;;;;4.00;2.03;;;25.20;35.70;;;26.10;31.09;97655.59;5033678;28;20424;-40
2023/07/14 09:31:52;;;;;;;3.05;2.20;;;25.30;35.20;;;26.12;31.44;97647.97;5032757;28;20045;-40
2023/07/14 09:34:40;;;;;;;7.70;2.67;;;25.30;34.20;;;26.23;31.32;97644.22;5030276;28;20056;-40
2023/07/14 09:37:35;;;;;;;3.95;2.92;;;25.40;34.80;;;26.27;31.21;97639.06;5027327;28;20045;-40
2023/07/14 09:40:21;;;;;;;3.00;1.92;;;25.50;33.80;;;26.36;30.83;97645.66;5026622;28;20045;-40
2023/07/14 09:42:55;;;;;;;2.92;2.25;;;25.50;33.70;;;26.41;31.27;97639.41;5031778;28;20037;-40
2023/07/14 09:45:30;;;;;;;6.82;3.33;;;25.60;34.60;;;26.47;30.67;97639.16;5032293;28;20053;-40
2023/07/14 09:48:30;;;;;;;5.53;1.98;;;25.70;34.70;;;26.52;30.63;97630.19;5033466;28;20515;-40
2023/07/14 09:51:11;;;;;;;3.83;2.30;;;25.70;32.90;;;26.60;31.02;97631.63;5026293;28;20045;-40
2023/07/14 09:54:07;;;;;;;2.80;2.08;;;25.80;34.00;;;26.64;31.20;97632.75;5033546;28;20045;-41
2023/07/14 09:56:44;;;;;;;2.78;2.28;;;25.90;33.90;;;26.74;31.10;97619.16;5032386;28;20524;-41
2023/07/14 09:59:30;;;;;;;4.03;2.25;;;25.90;34.20;;;26.76;31.15;97616.97;5033309;28;20420;-40
2023/07/14 10:02:02;;;;;;;3.75;2.22;;;26.00;33.80;;;26.78;30.42;97622.97;5022005;28;20049;-40
2023/07/14 10:04:32;;;;;;;3.35;2.33;;;25.90;34.30;;;26.78;30.58;97613.97;5025267;28;20049;-40
2023/07/14 10:07:21;;;;;;;3.45;2.22;;;25.90;34.00;;;26.77;30.64;97610.41;5032792;28;20042;-41
2023/07/14 10:10:12;;;;;;;3.53;2.92;;;25.90;32.90;;;26.80;30.69;97620.81;5031728;28;20420;-40
2023/07/14 10:12:48;;;;;;;4.05;2.47;;;25.90;33.60;;;26.82;30.58;97612.34;5033233;28;20053;-40
2023/07/14 10:15:30;;;;;;;3.38;2.28;;;25.90;33.60;;;26.82;30.16;97612.34;5032850;28;20046;-40
2023/07/14 10:18:12;;;;;;;4.20;2.15;;;25.90;32.80;;;26.80;29.94;97607.16;5025834;28;20037;-41
2023/07/14 10:20:42;;;;;;;2.53;2.00;;;25.90;34.60;;;26.83;30.32;97605.78;5032494;28;20057;-40
2023/07/14 10:23:17;;;;;;;3.97;2.00;;;25.80;34.00;;;26.85;30.23;97604.44;5031804;28;20481;-40
2023/07/14 10:25:51;;;;;;;2.47;2.22;;;25.90;34.00;;;26.90;30.40;97600.91;5032478;28;20417;-41
2023/07/14 10:28:28;;;;;;;3.67;2.13;;;25.90;34.10;;;26.91;30.25;97599.81;5030853;28;20481;-42
2023/07/14 10:31:33;;;;;;;4.38;2.53;;;26.00;33.90;;;26.89;30.35;97597.34;5023898;28;20038;-41
2023/07/14 10:34:33;;;;;;;2.85;2.50;;;25.90;33.70;;;26.91;30.22;97611.56;5024942;28;20041;-42
2023/07/14 10:37:09;;;;;;;2.75;2.10;;;26.00;33.10;;;26.98;29.57;97605.84;5025618;28;20048;-39
2023/07/14 10:39:44;;;;;;;2.50;2.10;;;26.00;33.50;;;27.01;29.62;97599.84;5031243;28;20185;-40
2023/07/14 10:42:21;;;;;;;4.40;2.40;;;26.10;33.00;;;27.05;29.81;97594.69;5031374;28;20049;-40
2023/07/14 10:44:50;;;;;;;5.72;2.50;;;26.10;33.20;;;27.07;29.27;97592.50;5031530;28;20045;-41